Map

Track Data

SID SEASON NUMBER BASIN SUBBASIN NAME ISO_TIME NATURE LAT LON WMO_WIND WMO_PRES WMO_AGENCY TRACK_TYPE DIST2LAND LANDFALL IFLAG USA_AGENCY USA_ATCF_ID USA_LAT USA_LON USA_RECORD USA_STATUS USA_WIND USA_PRES USA_SSHS USA_R34_NE USA_R34_SE USA_R34_SW USA_R34_NW USA_R50_NE USA_R50_SE USA_R50_SW USA_R50_NW USA_R64_NE USA_R64_SE USA_R64_SW USA_R64_NW USA_POCI USA_ROCI USA_RMW USA_EYE TOKYO_LAT TOKYO_LON TOKYO_GRADE TOKYO_WIND TOKYO_PRES TOKYO_R50_DIR TOKYO_R50_LONG TOKYO_R50_SHORT TOKYO_R30_DIR TOKYO_R30_LONG TOKYO_R30_SHORT TOKYO_LAND CMA_LAT CMA_LON CMA_CAT CMA_WIND CMA_PRES HKO_LAT HKO_LON HKO_CAT HKO_WIND HKO_PRES NEWDELHI_LAT NEWDELHI_LON NEWDELHI_GRADE NEWDELHI_WIND NEWDELHI_PRES NEWDELHI_CI NEWDELHI_DP NEWDELHI_POCI REUNION_LAT REUNION_LON REUNION_TYPE REUNION_WIND REUNION_PRES REUNION_TNUM REUNION_CI REUNION_RMW REUNION_R34_NE REUNION_R34_SE REUNION_R34_SW REUNION_R34_NW REUNION_R50_NE REUNION_R50_SE REUNION_R50_SW REUNION_R50_NW REUNION_R64_NE REUNION_R64_SE REUNION_R64_SW REUNION_R64_NW BOM_LAT BOM_LON BOM_TYPE BOM_WIND BOM_PRES BOM_TNUM BOM_CI BOM_RMW BOM_R34_NE BOM_R34_SE BOM_R34_SW BOM_R34_NW BOM_R50_NE BOM_R50_SE BOM_R50_SW BOM_R50_NW BOM_R64_NE BOM_R64_SE BOM_R64_SW BOM_R64_NW BOM_ROCI BOM_POCI BOM_EYE BOM_POS_METHOD BOM_PRES_METHOD NADI_LAT NADI_LON NADI_CAT NADI_WIND NADI_PRES WELLINGTON_LAT WELLINGTON_LON WELLINGTON_WIND WELLINGTON_PRES DS824_LAT DS824_LON DS824_STAGE DS824_WIND DS824_PRES TD9636_LAT TD9636_LON TD9636_STAGE TD9636_WIND TD9636_PRES TD9635_LAT TD9635_LON TD9635_WIND TD9635_PRES TD9635_ROCI NEUMANN_LAT NEUMANN_LON NEUMANN_CLASS NEUMANN_WIND NEUMANN_PRES MLC_LAT MLC_LON MLC_CLASS MLC_WIND MLC_PRES USA_GUST BOM_GUST BOM_GUST_PER REUNION_GUST REUNION_GUST_PER USA_SEAHGT USA_SEARAD_NE USA_SEARAD_SE USA_SEARAD_SW USA_SEARAD_NW STORM_SPEED STORM_DIR
1867046S15071 1867 6 SI MM NOT_NAMED 1867-02-14 18:00:00 NR -14.7000 71.2000 main 1552 1523 __________O___ -1 -14.7000 71.2000 7 6 235
1867046S15071 1867 6 SI MM NOT_NAMED 1867-02-14 21:00:00 NR -14.8659 70.9551 main 1523 1489 __________P___ -1 -14.8659 70.9551 7 6 235
1867046S15071 1867 6 SI MM NOT_NAMED 1867-02-15 00:00:00 NR -15.0253 70.7180 main 1489 1460 __________P___ -1 -15.0253 70.7180 7 5 235
1867046S15071 1867 6 SI MM NOT_NAMED 1867-02-15 03:00:00 NR -15.1721 70.4968 main 1460 1436 __________P___ -1 -15.1721 70.4968 7 5 236
1867046S15071 1867 6 SI MM NOT_NAMED 1867-02-15 06:00:00 NR -15.3000 70.3000 main 1436 1412 __________O___ -1 -15.3000 70.3000 7 4 236
1867046S15071 1867 6 SI MM NOT_NAMED 1867-02-15 09:00:00 NR -15.4061 70.1323 main 1412 1397 __________P___ -1 -15.4061 70.1323 7 4 237
1867046S15071 1867 6 SI MM NOT_NAMED 1867-02-15 12:00:00 NR -15.4998 69.9847 main 1397 1383 __________P___ -1 -15.4998 69.9847 7 3 236
1867046S15071 1867 6 SI MM NOT_NAMED 1867-02-15 15:00:00 NR -15.5936 69.8448 main 1373 1359 __________P___ -1 -15.5936 69.8448 7 3 234
1867046S15071 1867 6 SI MM NOT_NAMED 1867-02-15 18:00:00 NR -15.7000 69.7000 main 1359 1335 __________O___ -1 -15.7000 69.7000 7 4 231
1867046S15071 1867 6 SI MM NOT_NAMED 1867-02-15 21:00:00 NR -15.8356 69.5322 main 1335 1316 __________P___ -1 -15.8356 69.5322 7 4 229
1867046S15071 1867 6 SI MM NOT_NAMED 1867-02-16 00:00:00 NR -15.9850 69.3575 main 1316 1292 __________P___ -1 -15.9850 69.3575 7 5 228
1867046S15071 1867 6 SI MM NOT_NAMED 1867-02-16 03:00:00 NR -16.1419 69.1790 main 1292 1263 __________P___ -1 -16.1419 69.1790 7 5 227
1867046S15071 1867 6 SI MM NOT_NAMED 1867-02-16 06:00:00 NR -16.3000 69.0000 main 1263 1239 __________O___ -1 -16.3000 69.0000 7 5 227
1867046S15071 1867 6 SI MM NOT_NAMED 1867-02-16 09:00:00 NR -16.4458 68.8330 main 1239 1221 __________P___ -1 -16.4458 68.8330 7 4 228
1867046S15071 1867 6 SI MM NOT_NAMED 1867-02-16 12:00:00 NR -16.5924 68.6648 main 1221 1197 __________P___ -1 -16.5924 68.6648 7 4 228
1867046S15071 1867 6 SI MM NOT_NAMED 1867-02-16 15:00:00 NR -16.7427 68.4892 main 1197 1169 __________P___ -1 -16.7427 68.4892 7 5 229
1867046S15071 1867 6 SI MM NOT_NAMED 1867-02-16 18:00:00 NR -16.9000 68.3000 main 1169 1142 __________O___ -1 -16.9000 68.3000 7 5 230
1867046S15071 1867 6 SI MM NOT_NAMED 1867-02-16 21:00:00 NR -17.0678 68.0853 main 1142 1118 __________P___ -1 -17.0678 68.0853 7 5 231
1867046S15071 1867 6 SI MM NOT_NAMED 1867-02-17 00:00:00 NR -17.2425 67.8575 main 1118 1080 __________P___ -1 -17.2425 67.8575 7 6 231
1867046S15071 1867 6 SI MM NOT_NAMED 1867-02-17 03:00:00 NR -17.4210 67.6259 main 1080 1053 __________P___ -1 -17.4210 67.6259 7 6 231
1867046S15071 1867 6 SI MM NOT_NAMED 1867-02-17 06:00:00 NR -17.6000 67.4000 main 1053 1026 __________O___ -1 -17.6000 67.4000 7 6 230
1867046S15071 1867 6 SI MM NOT_NAMED 1867-02-17 09:00:00 NR -17.7790 67.1806 main 1026 1003 __________P___ -1 -17.7790 67.1806 7 5 229
1867046S15071 1867 6 SI MM NOT_NAMED 1867-02-17 12:00:00 NR -17.9575 66.9700 main 999 976 __________P___ -1 -17.9575 66.9700 7 5 228
1867046S15071 1867 6 SI MM NOT_NAMED 1867-02-17 15:00:00 NR -18.1322 66.7744 main 976 950 __________P___ -1 -18.1322 66.7744 7 5 226
1867046S15071 1867 6 SI MM NOT_NAMED 1867-02-17 18:00:00 NR -18.3000 66.6000 main 950 937 __________O___ -1 -18.3000 66.6000 7 4 223
1867046S15071 1867 6 SI MM NOT_NAMED 1867-02-17 21:00:00 NR -18.4529 66.4653 main 934 921 __________P___ -1 -18.4529 66.4653 7 4 218
1867046S15071 1867 6 SI MM NOT_NAMED 1867-02-18 00:00:00 NR -18.5998 66.3496 main 911 898 __________P___ -1 -18.5998 66.3496 7 4 217
1867046S15071 1867 6 SI MM NOT_NAMED 1867-02-18 03:00:00 NR -18.7467 66.2341 main 898 883 __________P___ -1 -18.7467 66.2341 7 4 218
1867046S15071 1867 6 SI MM NOT_NAMED 1867-02-18 06:00:00 NR -18.9000 66.1000 main 883 858 __________O___ -1 -18.9000 66.1000 7 4 223
1867046S15071 1867 6 SI MM NOT_NAMED 1867-02-18 09:00:00 NR -19.0638 65.9175 main 858 835 __________P___ -1 -19.0638 65.9175 7 5 227
1867046S15071 1867 6 SI MM NOT_NAMED 1867-02-18 12:00:00 NR -19.2351 65.7150 main 835 811 __________P___ -1 -19.2351 65.7150 7 5 228
1867046S15071 1867 6 SI MM NOT_NAMED 1867-02-18 15:00:00 NR -19.4138 65.5050 main 811 787 __________P___ -1 -19.4138 65.5050 7 5 227
1867046S15071 1867 6 SI MM NOT_NAMED 1867-02-18 18:00:00 NR -19.6000 65.3000 main 787 764 __________O___ -1 -19.6000 65.3000 7 5 224
1867046S15071 1867 6 SI MM NOT_NAMED 1867-02-18 21:00:00 NR -19.7968 65.1137 main 764 741 __________P___ -1 -19.7968 65.1137 7 5 221
1867046S15071 1867 6 SI MM NOT_NAMED 1867-02-19 00:00:00 NR -19.9999 64.9349 main 741 730 __________P___ -1 -19.9999 64.9349 7 5 219
1867046S15071 1867 6 SI MM NOT_NAMED 1867-02-19 03:00:00 NR -20.2031 64.7637 main 730 708 __________P___ -1 -20.2031 64.7637 7 5 218
1867046S15071 1867 6 SI MM NOT_NAMED 1867-02-19 06:00:00 NR -20.4000 64.6000 main 708 688 __________O___ -1 -20.4000 64.6000 7 5 220
1867046S15071 1867 6 SI MM NOT_NAMED 1867-02-19 09:00:00 NR -20.5781 64.4345 main 688 678 __________P___ -1 -20.5781 64.4345 7 5 221
1867046S15071 1867 6 SI MM NOT_NAMED 1867-02-19 12:00:00 NR -20.7500 64.2773 main 678 659 __________P___ -1 -20.7500 64.2773 7 4 219
1867046S15071 1867 6 SI MM NOT_NAMED 1867-02-19 15:00:00 NR -20.9219 64.1315 main 659 649 __________P___ -1 -20.9219 64.1315 7 4 216
1867046S15071 1867 6 SI MM NOT_NAMED 1867-02-19 18:00:00 NR -21.1000 64.0000 main 650 642 __________O___ -1 -21.1000 64.0000 7 4 211
1867046S15071 1867 6 SI MM NOT_NAMED 1867-02-19 21:00:00 NR -21.2968 63.8936 main 643 635 __________P___ -1 -21.2968 63.8936 7 4 205
1867046S15071 1867 6 SI MM NOT_NAMED 1867-02-20 00:00:00 NR -21.4999 63.7997 main 637 629 __________P___ -1 -21.4999 63.7997 7 4 203
1867046S15071 1867 6 SI MM NOT_NAMED 1867-02-20 03:00:00 NR -21.7030 63.7060 main 632 624 __________P___ -1 -21.7030 63.7060 7 4 205
1867046S15071 1867 6 SI MM NOT_NAMED 1867-02-20 06:00:00 NR -21.9000 63.6000 main 627 620 __________O___ -1 -21.9000 63.6000 7 4 212
1867046S15071 1867 6 SI MM NOT_NAMED 1867-02-20 09:00:00 NR -22.0741 63.4562 main 624 608 __________P___ -1 -22.0741 63.4562 7 4 219
1867046S15071 1867 6 SI MM NOT_NAMED 1867-02-20 12:00:00 NR -22.2426 63.3000 main 608 602 __________P___ -1 -22.2426 63.3000 7 4 220
1867046S15071 1867 6 SI MM NOT_NAMED 1867-02-20 15:00:00 NR -22.4148 63.1437 main 596 591 __________P___ -1 -22.4148 63.1437 7 5 218
1867046S15071 1867 6 SI MM NOT_NAMED 1867-02-20 18:00:00 NR -22.6000 63.0000 main 596 591 __________O___ -1 -22.6000 63.0000 7 5 212
1867046S15071 1867 6 SI MM NOT_NAMED 1867-02-20 21:00:00 NR -22.8053 62.8782 main 595 591 __________P___ -1 -22.8053 62.8782 7 5 206
1867046S15071 1867 6 SI MM NOT_NAMED 1867-02-21 00:00:00 NR -23.0275 62.7752 main 596 592 __________P___ -1 -23.0275 62.7752 7 5 201
1867046S15071 1867 6 SI MM NOT_NAMED 1867-02-21 03:00:00 NR -23.2609 62.6845 main 603 600 __________P___ -1 -23.2609 62.6845 7 5 199
1867046S15071 1867 6 SI MM NOT_NAMED 1867-02-21 06:00:00 NR -23.5000 62.6000 main 606 __________O___ -1 -23.5000 62.6000 7 5 199

About IBTrACS Database

This database is a web-friendly format of International Best Track Archive for Climate Stewardship (IBTrACS), a global best track data archive curated by NOAA dating back to 1842.

Updated: 2021-12-01